AAL1157 KDFW-KAUS
Flight info
| Callsign | AAL1157 |
|---|---|
| Flight time | 0h 45m |
| Altitude | 28000 |
| Route | JASPA7 WINDU SEWZY6 |
| Aircraft | A20N/M-SDE2E3FGHIRWXY/LB1 |
Departure
| Time | 2026-05-06 21:19 |
|---|---|
| Airport | Dallas Fort Worth International Airport (KDFW) |
Arrival
| Time | 2026-05-06 22:04 |
|---|---|
| Airport | Austin Bergstrom International Airport (KAUS) |
| Time | Latitude | Longitude | Altitude | Speed | Heading |
|---|---|---|---|---|---|
| 2026-05-06 20:54 | 32.90501 | -97.03505 | 597 ft | 0 kts | 268° |
| 2026-05-06 21:06 | 32.90501 | -97.03496 | 597 ft | 0 kts | 268° |
| 2026-05-06 21:06 | 32.90502 | -97.03490 | 597 ft | 1 kts | 268° |
| 2026-05-06 21:06 | 32.90502 | -97.03472 | 597 ft | 3 kts | 268° |
| 2026-05-06 21:07 | 32.90507 | -97.03439 | 597 ft | 5 kts | 245° |
| 2026-05-06 21:07 | 32.90523 | -97.03410 | 597 ft | 4 kts | 214° |
| 2026-05-06 21:07 | 32.90543 | -97.03401 | 597 ft | 0 kts | 180° |
| 2026-05-06 21:09 | 32.90529 | -97.03397 | 597 ft | 4 kts | 161° |
| 2026-05-06 21:10 | 32.90503 | -97.03359 | 597 ft | 8 kts | 121° |
| 2026-05-06 21:10 | 32.90449 | -97.03314 | 596 ft | 12 kts | 170° |
| 2026-05-06 21:10 | 32.90351 | -97.03311 | 596 ft | 16 kts | 180° |
| 2026-05-06 21:10 | 32.90226 | -97.03311 | 596 ft | 20 kts | 181° |
| 2026-05-06 21:11 | 32.90076 | -97.03315 | 596 ft | 23 kts | 181° |
| 2026-05-06 21:11 | 32.89905 | -97.03316 | 597 ft | 26 kts | 179° |
| 2026-05-06 21:11 | 32.89715 | -97.03313 | 597 ft | 29 kts | 179° |
| 2026-05-06 21:11 | 32.89506 | -97.03315 | 597 ft | 31 kts | 181° |
| 2026-05-06 21:12 | 32.89281 | -97.03318 | 596 ft | 33 kts | 180° |
| 2026-05-06 21:12 | 32.89071 | -97.03318 | 596 ft | 29 kts | 180° |
| 2026-05-06 21:12 | 32.88862 | -97.03320 | 596 ft | 31 kts | 180° |
| 2026-05-06 21:12 | 32.88668 | -97.03320 | 596 ft | 16 kts | 180° |
| 2026-05-06 21:13 | 32.88631 | -97.03320 | 596 ft | 2 kts | 180° |
| 2026-05-06 21:13 | 32.88606 | -97.03320 | 596 ft | 6 kts | 180° |
| 2026-05-06 21:13 | 32.88552 | -97.03321 | 596 ft | 10 kts | 183° |
| 2026-05-06 21:13 | 32.88500 | -97.03381 | 597 ft | 13 kts | 258° |
| 2026-05-06 21:14 | 32.88497 | -97.03497 | 597 ft | 16 kts | 270° |
| 2026-05-06 21:14 | 32.88498 | -97.03640 | 598 ft | 19 kts | 270° |
| 2026-05-06 21:14 | 32.88501 | -97.03805 | 598 ft | 19 kts | 271° |
| 2026-05-06 21:14 | 32.88502 | -97.03894 | 598 ft | 6 kts | 271° |
| 2026-05-06 21:15 | 32.88502 | -97.03946 | 598 ft | 7 kts | 269° |
| 2026-05-06 21:15 | 32.88502 | -97.04022 | 598 ft | 11 kts | 269° |
| 2026-05-06 21:15 | 32.88501 | -97.04129 | 598 ft | 15 kts | 270° |
| 2026-05-06 21:15 | 32.88503 | -97.04267 | 598 ft | 18 kts | 271° |
| 2026-05-06 21:16 | 32.88507 | -97.04430 | 598 ft | 21 kts | 272° |
| 2026-05-06 21:16 | 32.88507 | -97.04561 | 598 ft | 10 kts | 268° |
| 2026-05-06 21:16 | 32.88504 | -97.04656 | 598 ft | 14 kts | 268° |
| 2026-05-06 21:16 | 32.88502 | -97.04740 | 597 ft | 16 kts | 267° |
| 2026-05-06 21:17 | 32.88361 | -97.04806 | 596 ft | 21 kts | 180° |
| 2026-05-06 21:17 | 32.88260 | -97.04805 | 596 ft | 23 kts | 179° |
| 2026-05-06 21:17 | 32.88090 | -97.04807 | 595 ft | 26 kts | 188° |
| 2026-05-06 21:17 | 32.87979 | -97.04846 | 594 ft | 6 kts | 253° |
| 2026-05-06 21:18 | 32.87979 | -97.04927 | 591 ft | 13 kts | 271° |
| 2026-05-06 21:18 | 32.87986 | -97.05051 | 591 ft | 16 kts | 286° |
| 2026-05-06 21:18 | 32.88083 | -97.05096 | 594 ft | 18 kts | 359° |
| 2026-05-06 21:18 | 32.88447 | -97.05091 | 593 ft | 87 kts | 1° |
| 2026-05-06 21:19 | 32.89249 | -97.05082 | 597 ft | 140 kts | 1° |
| 2026-05-06 21:19 | 32.90256 | -97.05052 | 1077 ft | 145 kts | 2° |
| 2026-05-06 21:19 | 32.91274 | -97.05016 | 1720 ft | 147 kts | 1° |
| 2026-05-06 21:19 | 32.92306 | -97.04975 | 2347 ft | 150 kts | 1° |
| 2026-05-06 21:20 | 32.93384 | -97.04971 | 2820 ft | 161 kts | 0° |
| 2026-05-06 21:20 | 32.94555 | -97.05224 | 3219 ft | 183 kts | 342° |
| 2026-05-06 21:20 | 32.95812 | -97.05838 | 3628 ft | 206 kts | 338° |
| 2026-05-06 21:20 | 32.97145 | -97.06462 | 4122 ft | 228 kts | 338° |
| 2026-05-06 21:21 | 32.98709 | -97.07142 | 4744 ft | 249 kts | 335° |
| 2026-05-06 21:21 | 33.00115 | -97.08305 | 5630 ft | 251 kts | 308° |
| 2026-05-06 21:21 | 33.00926 | -97.10095 | 6756 ft | 245 kts | 282° |
| 2026-05-06 21:21 | 33.01028 | -97.12109 | 7742 ft | 248 kts | 265° |
| 2026-05-06 21:22 | 33.00900 | -97.14181 | 8724 ft | 252 kts | 264° |
| 2026-05-06 21:22 | 33.00762 | -97.16272 | 9766 ft | 255 kts | 263° |
| 2026-05-06 21:22 | 33.00605 | -97.18410 | 10546 ft | 267 kts | 262° |
| 2026-05-06 21:22 | 33.00374 | -97.20691 | 11037 ft | 288 kts | 260° |
| 2026-05-06 21:23 | 32.99843 | -97.23069 | 11458 ft | 307 kts | 246° |
| 2026-05-06 21:23 | 32.98749 | -97.25285 | 12262 ft | 313 kts | 233° |
| 2026-05-06 21:23 | 32.97227 | -97.27135 | 13318 ft | 314 kts | 223° |
| 2026-05-06 21:23 | 32.95362 | -97.28529 | 14243 ft | 322 kts | 208° |
| 2026-05-06 21:24 | 32.93174 | -97.29211 | 15156 ft | 332 kts | 193° |
| 2026-05-06 21:24 | 32.90836 | -97.29188 | 16022 ft | 340 kts | 185° |
| 2026-05-06 21:24 | 32.88467 | -97.29042 | 16870 ft | 342 kts | 186° |
| 2026-05-06 21:24 | 32.86085 | -97.28897 | 17676 ft | 344 kts | 186° |
| 2026-05-06 21:25 | 32.83688 | -97.28757 | 18463 ft | 346 kts | 187° |
| 2026-05-06 21:25 | 32.81267 | -97.28623 | 19074 ft | 351 kts | 187° |
| 2026-05-06 21:25 | 32.78797 | -97.28313 | 19677 ft | 363 kts | 181° |
| 2026-05-06 21:25 | 32.76290 | -97.27627 | 20296 ft | 376 kts | 174° |
| 2026-05-06 21:26 | 32.73780 | -97.26560 | 20878 ft | 388 kts | 169° |
| 2026-05-06 21:26 | 32.71251 | -97.25382 | 21497 ft | 393 kts | 169° |
| 2026-05-06 21:26 | 32.68691 | -97.24198 | 22093 ft | 397 kts | 169° |
| 2026-05-06 21:26 | 32.66095 | -97.23006 | 22674 ft | 402 kts | 169° |
| 2026-05-06 21:27 | 32.63468 | -97.21803 | 23314 ft | 407 kts | 170° |
| 2026-05-06 21:27 | 32.60810 | -97.20588 | 23851 ft | 411 kts | 170° |
| 2026-05-06 21:27 | 32.58133 | -97.19364 | 24442 ft | 413 kts | 170° |
| 2026-05-06 21:27 | 32.55443 | -97.18135 | 25009 ft | 415 kts | 170° |
| 2026-05-06 21:28 | 32.52744 | -97.16904 | 25552 ft | 418 kts | 170° |
| 2026-05-06 21:28 | 32.50021 | -97.15663 | 26065 ft | 421 kts | 170° |
| 2026-05-06 21:28 | 32.47278 | -97.14415 | 26587 ft | 423 kts | 170° |
| 2026-05-06 21:28 | 32.44531 | -97.13165 | 27079 ft | 426 kts | 170° |
| 2026-05-06 21:29 | 32.41752 | -97.11902 | 27572 ft | 428 kts | 170° |
| 2026-05-06 21:29 | 32.38962 | -97.10635 | 27909 ft | 431 kts | 170° |
| 2026-05-06 21:29 | 32.36168 | -97.09366 | 27998 ft | 431 kts | 170° |
| 2026-05-06 21:30 | 32.30553 | -97.06973 | 27998 ft | 422 kts | 176° |
| 2026-05-06 21:30 | 32.24868 | -97.06005 | 28004 ft | 404 kts | 189° |
| 2026-05-06 21:31 | 32.19297 | -97.06175 | 28004 ft | 400 kts | 191° |
| 2026-05-06 21:31 | 32.13727 | -97.06359 | 28006 ft | 401 kts | 191° |
| 2026-05-06 21:32 | 32.08189 | -97.06533 | 28007 ft | 401 kts | 191° |
| 2026-05-06 21:32 | 31.99781 | -97.06796 | 28004 ft | 401 kts | 191° |
| 2026-05-06 21:33 | 31.94210 | -97.06971 | 27998 ft | 401 kts | 191° |
| 2026-05-06 21:33 | 31.88619 | -97.07146 | 27998 ft | 401 kts | 191° |
| 2026-05-06 21:34 | 31.85826 | -97.07233 | 27994 ft | 402 kts | 191° |
| 2026-05-06 21:34 | 31.83030 | -97.07320 | 27987 ft | 402 kts | 191° |
| 2026-05-06 21:34 | 31.80242 | -97.07407 | 27990 ft | 402 kts | 191° |
| 2026-05-06 21:34 | 31.77440 | -97.07494 | 27994 ft | 402 kts | 191° |
| 2026-05-06 21:35 | 31.74683 | -97.07580 | 27994 ft | 402 kts | 191° |
| 2026-05-06 21:35 | 31.71856 | -97.07668 | 28004 ft | 402 kts | 191° |
| 2026-05-06 21:35 | 31.69059 | -97.07755 | 27997 ft | 402 kts | 191° |
| 2026-05-06 21:35 | 31.66299 | -97.07841 | 27998 ft | 402 kts | 191° |
| 2026-05-06 21:36 | 31.63465 | -97.07929 | 27997 ft | 402 kts | 191° |
| 2026-05-06 21:36 | 31.60704 | -97.08015 | 27997 ft | 402 kts | 191° |
| 2026-05-06 21:36 | 31.57902 | -97.08102 | 27999 ft | 402 kts | 191° |
| 2026-05-06 21:36 | 31.55125 | -97.08260 | 27999 ft | 398 kts | 195° |
| 2026-05-06 21:37 | 31.52410 | -97.08729 | 27994 ft | 391 kts | 200° |
| 2026-05-06 21:37 | 31.49796 | -97.09505 | 27991 ft | 386 kts | 205° |
| 2026-05-06 21:37 | 31.47260 | -97.10505 | 27986 ft | 384 kts | 206° |
| 2026-05-06 21:37 | 31.44733 | -97.11508 | 27764 ft | 383 kts | 206° |
| 2026-05-06 21:38 | 31.42198 | -97.12507 | 27008 ft | 387 kts | 206° |
| 2026-05-06 21:38 | 31.39616 | -97.13525 | 25930 ft | 395 kts | 205° |
| 2026-05-06 21:38 | 31.37009 | -97.14547 | 25193 ft | 393 kts | 205° |
| 2026-05-06 21:38 | 31.34441 | -97.15546 | 24743 ft | 384 kts | 205° |
| 2026-05-06 21:39 | 31.31936 | -97.16518 | 24200 ft | 377 kts | 205° |
| 2026-05-06 21:39 | 31.29467 | -97.17480 | 23647 ft | 371 kts | 205° |
| 2026-05-06 21:39 | 31.27039 | -97.18427 | 23231 ft | 361 kts | 205° |
| 2026-05-06 21:39 | 31.24698 | -97.19335 | 22897 ft | 349 kts | 205° |
| 2026-05-06 21:40 | 31.22422 | -97.20221 | 22553 ft | 340 kts | 205° |
| 2026-05-06 21:40 | 31.20184 | -97.21097 | 22181 ft | 340 kts | 205° |
| 2026-05-06 21:40 | 31.17936 | -97.21980 | 21803 ft | 342 kts | 205° |
| 2026-05-06 21:40 | 31.15684 | -97.22861 | 21425 ft | 341 kts | 205° |
| 2026-05-06 21:41 | 31.13440 | -97.23737 | 21046 ft | 339 kts | 205° |
| 2026-05-06 21:41 | 31.11205 | -97.24606 | 20677 ft | 338 kts | 205° |
| 2026-05-06 21:41 | 31.09011 | -97.25456 | 20536 ft | 327 kts | 205° |
| 2026-05-06 21:41 | 31.06898 | -97.26271 | 20431 ft | 313 kts | 205° |
| 2026-05-06 21:42 | 31.04868 | -97.27055 | 20189 ft | 304 kts | 205° |
| 2026-05-06 21:42 | 31.02869 | -97.27834 | 19718 ft | 303 kts | 205° |
| 2026-05-06 21:42 | 31.00872 | -97.28615 | 19231 ft | 303 kts | 205° |
| 2026-05-06 21:42 | 30.98876 | -97.29395 | 18771 ft | 302 kts | 205° |
| 2026-05-06 21:43 | 30.96884 | -97.30170 | 18320 ft | 302 kts | 205° |
| 2026-05-06 21:43 | 30.94896 | -97.30941 | 17859 ft | 299 kts | 205° |
| 2026-05-06 21:43 | 30.92941 | -97.31696 | 17587 ft | 292 kts | 205° |
| 2026-05-06 21:43 | 30.91017 | -97.32442 | 17265 ft | 292 kts | 205° |
| 2026-05-06 21:44 | 30.89089 | -97.33199 | 16937 ft | 292 kts | 205° |
| 2026-05-06 21:44 | 30.87172 | -97.33951 | 16610 ft | 290 kts | 205° |
| 2026-05-06 21:44 | 30.85261 | -97.34702 | 16282 ft | 291 kts | 205° |
| 2026-05-06 21:44 | 30.83250 | -97.35500 | 15941 ft | 321 kts | 204° |
| 2026-05-06 21:45 | 30.81119 | -97.36395 | 15579 ft | 325 kts | 208° |
| 2026-05-06 21:45 | 30.79103 | -97.37511 | 15232 ft | 317 kts | 211° |
| 2026-05-06 21:45 | 30.77135 | -97.38637 | 14915 ft | 315 kts | 211° |
| 2026-05-06 21:45 | 30.75160 | -97.39765 | 14644 ft | 317 kts | 211° |
| 2026-05-06 21:46 | 30.73184 | -97.40892 | 14350 ft | 317 kts | 210° |
| 2026-05-06 21:46 | 30.71214 | -97.42014 | 14056 ft | 314 kts | 210° |
| 2026-05-06 21:46 | 30.69254 | -97.43129 | 13735 ft | 313 kts | 210° |
| 2026-05-06 21:46 | 30.67299 | -97.44242 | 13378 ft | 313 kts | 210° |
| 2026-05-06 21:47 | 30.65306 | -97.45268 | 13031 ft | 314 kts | 205° |
| 2026-05-06 21:47 | 30.63262 | -97.46176 | 12679 ft | 314 kts | 205° |
| 2026-05-06 21:47 | 30.61221 | -97.47089 | 12336 ft | 314 kts | 205° |
| 2026-05-06 21:47 | 30.59183 | -97.48002 | 11995 ft | 313 kts | 205° |
| 2026-05-06 21:48 | 30.57157 | -97.48910 | 11657 ft | 310 kts | 205° |
| 2026-05-06 21:48 | 30.55161 | -97.49804 | 11317 ft | 304 kts | 205° |
| 2026-05-06 21:48 | 30.53206 | -97.50678 | 10995 ft | 298 kts | 205° |
| 2026-05-06 21:48 | 30.51293 | -97.51534 | 10689 ft | 292 kts | 205° |
| 2026-05-06 21:49 | 30.49424 | -97.52371 | 10383 ft | 286 kts | 205° |
| 2026-05-06 21:49 | 30.47584 | -97.53195 | 10080 ft | 280 kts | 205° |
| 2026-05-06 21:49 | 30.45780 | -97.54003 | 9773 ft | 276 kts | 205° |
| 2026-05-06 21:49 | 30.44000 | -97.54800 | 9445 ft | 272 kts | 205° |
| 2026-05-06 21:50 | 30.42250 | -97.55583 | 9116 ft | 267 kts | 205° |
| 2026-05-06 21:50 | 30.40530 | -97.56344 | 8820 ft | 263 kts | 202° |
| 2026-05-06 21:50 | 30.38759 | -97.56828 | 8527 ft | 262 kts | 191° |
| 2026-05-06 21:50 | 30.36938 | -97.56906 | 8231 ft | 261 kts | 184° |
| 2026-05-06 21:51 | 30.35137 | -97.56890 | 7957 ft | 256 kts | 184° |
| 2026-05-06 21:51 | 30.33377 | -97.56887 | 7701 ft | 249 kts | 184° |
| 2026-05-06 21:51 | 30.31690 | -97.56888 | 7419 ft | 243 kts | 184° |
| 2026-05-06 21:51 | 30.29987 | -97.56893 | 7134 ft | 239 kts | 184° |
| 2026-05-06 21:52 | 30.28341 | -97.56898 | 6847 ft | 234 kts | 184° |
| 2026-05-06 21:52 | 30.26726 | -97.56889 | 6560 ft | 229 kts | 183° |
| 2026-05-06 21:52 | 30.25164 | -97.56848 | 6274 ft | 220 kts | 183° |
| 2026-05-06 21:52 | 30.23655 | -97.56798 | 6006 ft | 214 kts | 182° |
| 2026-05-06 21:53 | 30.22214 | -97.56751 | 5782 ft | 202 kts | 183° |
| 2026-05-06 21:53 | 30.20853 | -97.56713 | 5495 ft | 195 kts | 183° |
| 2026-05-06 21:53 | 30.19516 | -97.56680 | 5196 ft | 190 kts | 182° |
| 2026-05-06 21:53 | 30.18195 | -97.56652 | 4830 ft | 191 kts | 182° |
| 2026-05-06 21:54 | 30.16874 | -97.56631 | 4440 ft | 190 kts | 182° |
| 2026-05-06 21:54 | 30.15538 | -97.56619 | 4012 ft | 194 kts | 182° |
| 2026-05-06 21:54 | 30.14186 | -97.56622 | 3614 ft | 194 kts | 182° |
| 2026-05-06 21:54 | 30.12830 | -97.56636 | 3243 ft | 196 kts | 182° |
| 2026-05-06 21:55 | 30.11485 | -97.56662 | 3038 ft | 189 kts | 182° |
| 2026-05-06 21:55 | 30.10128 | -97.56684 | 3002 ft | 201 kts | 182° |
| 2026-05-06 21:55 | 30.08723 | -97.56717 | 2997 ft | 200 kts | 182° |
| 2026-05-06 21:55 | 30.07369 | -97.56752 | 2994 ft | 187 kts | 182° |
| 2026-05-06 21:56 | 30.06109 | -97.56779 | 2988 ft | 175 kts | 182° |
| 2026-05-06 21:56 | 30.04893 | -97.56799 | 2988 ft | 177 kts | 182° |
| 2026-05-06 21:56 | 30.03652 | -97.56821 | 2990 ft | 179 kts | 181° |
| 2026-05-06 21:56 | 30.02408 | -97.56853 | 2983 ft | 177 kts | 182° |
| 2026-05-06 21:57 | 30.01186 | -97.56889 | 2983 ft | 175 kts | 182° |
| 2026-05-06 21:57 | 29.99953 | -97.56917 | 2977 ft | 179 kts | 182° |
| 2026-05-06 21:57 | 29.98726 | -97.57112 | 2967 ft | 177 kts | 208° |
| 2026-05-06 21:57 | 29.97904 | -97.58089 | 2980 ft | 172 kts | 251° |
| 2026-05-06 21:58 | 29.97774 | -97.59430 | 2968 ft | 168 kts | 273° |
| 2026-05-06 21:58 | 29.97787 | -97.60775 | 2964 ft | 167 kts | 274° |
| 2026-05-06 21:58 | 29.97802 | -97.62125 | 2975 ft | 169 kts | 273° |
| 2026-05-06 21:58 | 29.97821 | -97.63470 | 2966 ft | 167 kts | 277° |
| 2026-05-06 21:59 | 29.98275 | -97.64637 | 2967 ft | 161 kts | 320° |
| 2026-05-06 21:59 | 29.99298 | -97.65194 | 2980 ft | 166 kts | 342° |
| 2026-05-06 21:59 | 30.00392 | -97.65579 | 2986 ft | 163 kts | 343° |
| 2026-05-06 21:59 | 30.01481 | -97.65962 | 2984 ft | 164 kts | 343° |
| 2026-05-06 22:00 | 30.02561 | -97.66347 | 2990 ft | 160 kts | 343° |
| 2026-05-06 22:00 | 30.03623 | -97.66716 | 2991 ft | 158 kts | 343° |
| 2026-05-06 22:00 | 30.04677 | -97.67085 | 2990 ft | 160 kts | 343° |
| 2026-05-06 22:00 | 30.05765 | -97.67377 | 2893 ft | 162 kts | 350° |
| 2026-05-06 22:01 | 30.06504 | -97.67478 | 2757 ft | 159 kts | 355° |
| 2026-05-06 22:01 | 30.07577 | -97.67552 | 2547 ft | 150 kts | 357° |
| 2026-05-06 22:01 | 30.08600 | -97.67596 | 2363 ft | 144 kts | 358° |
| 2026-05-06 22:01 | 30.09553 | -97.67624 | 2180 ft | 129 kts | 358° |
| 2026-05-06 22:02 | 30.10387 | -97.67647 | 2019 ft | 112 kts | 359° |
| 2026-05-06 22:02 | 30.11158 | -97.67668 | 1878 ft | 115 kts | 359° |
| 2026-05-06 22:02 | 30.11973 | -97.67689 | 1733 ft | 116 kts | 0° |
| 2026-05-06 22:02 | 30.12771 | -97.67710 | 1566 ft | 113 kts | 358° |
| 2026-05-06 22:03 | 30.13561 | -97.67731 | 1415 ft | 115 kts | 360° |
| 2026-05-06 22:03 | 30.14376 | -97.67753 | 1270 ft | 115 kts | 359° |
| 2026-05-06 22:03 | 30.15142 | -97.67772 | 1097 ft | 107 kts | 359° |
| 2026-05-06 22:03 | 30.15928 | -97.67792 | 966 ft | 115 kts | 358° |
| 2026-05-06 22:04 | 30.16711 | -97.67808 | 798 ft | 114 kts | 358° |
| 2026-05-06 22:04 | 30.17544 | -97.67839 | 644 ft | 120 kts | 357° |
| 2026-05-06 22:04 | 30.18354 | -97.67861 | 499 ft | 110 kts | 358° |
| 2026-05-06 22:04 | 30.18858 | -97.67875 | 512 ft | 48 kts | 358° |
| 2026-05-06 22:05 | 30.19168 | -97.67883 | 516 ft | 42 kts | 359° |
| 2026-05-06 22:05 | 30.19437 | -97.67891 | 520 ft | 36 kts | 358° |
| 2026-05-06 22:05 | 30.19677 | -97.67893 | 521 ft | 32 kts | 4° |
| 2026-05-06 22:05 | 30.19870 | -97.67809 | 522 ft | 29 kts | 55° |
| 2026-05-06 22:06 | 30.19893 | -97.67578 | 520 ft | 25 kts | 90° |
| 2026-05-06 22:06 | 30.19895 | -97.67367 | 518 ft | 28 kts | 86° |
| 2026-05-06 22:06 | 30.19903 | -97.67155 | 517 ft | 23 kts | 89° |
| 2026-05-06 22:06 | 30.19907 | -97.66954 | 514 ft | 27 kts | 90° |
| 2026-05-06 22:07 | 30.19908 | -97.66774 | 510 ft | 17 kts | 89° |
| 2026-05-06 22:07 | 30.19986 | -97.66694 | 511 ft | 18 kts | 1° |
| 2026-05-06 22:07 | 30.20103 | -97.66682 | 513 ft | 12 kts | 1° |
| 2026-05-06 22:07 | 30.20136 | -97.66681 | 513 ft | 0 kts | 0° |